createdAt,value
2017-07-04T00:01:31.355Z,33.10
2017-07-04T00:04:00.091Z,32.90
2017-07-04T00:06:28.744Z,32.80
2017-07-04T00:08:56.991Z,32.80
2017-07-04T00:11:25.788Z,32.80
2017-07-04T00:13:54.396Z,32.70
2017-07-04T00:16:23.795Z,32.70
2017-07-04T00:18:53.587Z,32.60
2017-07-04T00:21:22.349Z,32.60
2017-07-04T00:23:50.918Z,32.50
2017-07-04T00:26:19.778Z,32.40
2017-07-04T00:28:48.971Z,32.50
2017-07-04T00:31:18.328Z,32.50
2017-07-04T00:33:47.148Z,32.50
2017-07-04T00:36:15.375Z,32.40
2017-07-04T00:38:44.316Z,32.30
2017-07-04T00:41:13.207Z,32.30
2017-07-04T00:43:41.755Z,32.20
2017-07-04T00:46:10.439Z,32.30
2017-07-04T00:48:39.307Z,32.20
2017-07-04T00:51:07.463Z,32.10
2017-07-04T00:53:36.923Z,32.00
2017-07-04T00:56:05.699Z,32.10
2017-07-04T00:58:34.551Z,32.00
2017-07-04T01:01:03.908Z,31.90
2017-07-04T01:03:32.587Z,32.00
2017-07-04T01:06:01.228Z,31.90
2017-07-04T01:08:30.527Z,31.90
2017-07-04T01:10:59.912Z,31.90
2017-07-04T01:13:28.523Z,31.90
2017-07-04T01:15:57.919Z,31.90
2017-07-04T01:18:27.563Z,31.80
2017-07-04T01:20:56.375Z,31.80
2017-07-04T01:23:24.498Z,31.70
2017-07-04T01:25:53.879Z,31.50
2017-07-04T01:28:22.589Z,31.60
2017-07-04T01:30:51.930Z,31.80
2017-07-04T01:33:20.575Z,31.70
2017-07-04T01:35:49.920Z,31.70
2017-07-04T01:38:18.155Z,31.70
2017-07-04T01:40:47.659Z,31.70
2017-07-04T01:43:16.899Z,31.70
2017-07-04T01:45:45.751Z,31.70
2017-07-04T01:48:15.199Z,31.60
2017-07-04T01:50:43.848Z,31.70
2017-07-04T01:53:13.188Z,31.70
2017-07-04T01:55:41.983Z,31.70
2017-07-04T01:58:10.831Z,31.70
2017-07-04T02:00:40.275Z,31.70
2017-07-04T02:16:08.401Z,31.70
2017-07-04T02:18:37.704Z,32.10
2017-07-04T02:21:05.831Z,32.10
2017-07-04T02:23:34.560Z,32.10
2017-07-04T02:26:02.685Z,32.10
2017-07-04T02:28:31.508Z,32.10
2017-07-04T02:31:00.236Z,32.20
2017-07-04T02:33:28.903Z,32.20
2017-07-04T02:35:58.362Z,32.20
2017-07-04T02:38:27.076Z,32.20
2017-07-04T02:40:55.783Z,32.20
2017-07-04T02:43:25.084Z,32.40
2017-07-04T02:45:54.819Z,32.60
2017-07-04T02:48:23.729Z,32.60
2017-07-04T02:50:52.724Z,32.70
2017-07-04T02:53:21.766Z,32.70
2017-07-04T02:55:50.264Z,32.70
2017-07-04T02:58:19.806Z,32.90
2017-07-04T03:00:48.603Z,32.90
2017-07-04T03:03:17.194Z,32.90
2017-07-04T03:05:45.315Z,33.00
2017-07-04T03:08:13.587Z,33.00
2017-07-04T03:10:42.200Z,33.00
2017-07-04T03:13:10.308Z,33.00
2017-07-04T03:15:39.152Z,32.90
2017-07-04T03:18:07.755Z,33.00
2017-07-04T03:20:36.706Z,33.20
2017-07-04T03:23:05.550Z,33.30
2017-07-04T03:25:34.360Z,33.30
2017-07-04T03:28:02.483Z,33.60
2017-07-04T03:30:32.000Z,33.50
2017-07-04T03:33:00.164Z,33.50
2017-07-04T03:35:29.677Z,33.80
2017-07-04T03:37:59.155Z,33.90
2017-07-04T03:40:27.761Z,33.90
2017-07-04T03:42:57.272Z,34.20
2017-07-04T03:45:26.814Z,34.40
2017-07-04T03:47:55.624Z,34.40
2017-07-04T03:50:24.087Z,34.30
2017-07-04T03:52:53.040Z,34.40
2017-07-04T03:55:22.342Z,34.60
2017-07-04T03:57:50.928Z,34.60
2017-07-04T04:00:20.515Z,34.90
2017-07-04T04:02:49.266Z,34.90
2017-07-04T04:05:17.915Z,35.20
2017-07-04T04:07:47.397Z,35.50
2017-07-04T04:10:16.007Z,35.50
2017-07-04T04:12:45.308Z,35.80
2017-07-04T04:15:14.684Z,36.00
2017-07-04T04:17:43.400Z,36.00
2017-07-04T04:20:12.635Z,36.00
2017-07-04T04:22:41.055Z,36.00
2017-07-04T04:25:09.817Z,36.30
2017-07-04T04:27:38.450Z,36.60
2017-07-04T04:30:07.991Z,37.10
2017-07-04T04:32:36.187Z,37.10
2017-07-04T04:35:04.841Z,37.20
2017-07-04T04:37:33.731Z,37.40
2017-07-04T04:40:02.437Z,37.60
2017-07-04T04:42:30.983Z,37.80
2017-07-04T04:45:00.676Z,38.30
2017-07-04T04:47:29.176Z,38.30
2017-07-04T04:49:58.770Z,38.90
2017-07-04T04:52:27.395Z,38.90
2017-07-04T04:54:55.960Z,39.50
2017-07-04T04:57:25.256Z,42.50
2017-07-04T04:59:55.056Z,44.10
2017-07-04T05:02:24.475Z,44.10
2017-07-04T05:04:53.952Z,45.90
2017-07-04T05:07:22.811Z,45.80
2017-07-04T05:09:51.459Z,46.10
2017-07-04T05:12:20.803Z,44.90
2017-07-04T05:14:49.760Z,44.90
2017-07-04T05:17:19.051Z,44.50
2017-07-04T05:19:48.595Z,43.90
2017-07-04T05:22:17.419Z,43.80
2017-07-04T05:24:45.532Z,43.50
2017-07-04T05:27:14.871Z,44.70
2017-07-04T05:29:43.827Z,44.70
2017-07-04T05:32:13.180Z,46.80
2017-07-04T05:34:42.860Z,47.30
2017-07-04T05:37:11.853Z,47.30
2017-07-04T05:39:40.808Z,48.00
2017-07-04T05:42:08.984Z,48.30
2017-07-04T05:44:37.791Z,48.10
2017-07-04T05:47:07.163Z,47.50
2017-07-04T05:49:35.783Z,47.50
2017-07-04T05:52:05.267Z,46.00
2017-07-04T05:54:33.870Z,46.00
2017-07-04T05:57:03.171Z,45.40
2017-07-04T05:59:32.970Z,45.00
2017-07-04T06:02:01.812Z,45.00
2017-07-04T06:04:29.924Z,44.80
2017-07-04T06:06:58.947Z,44.50
2017-07-04T06:09:28.247Z,44.80
2017-07-04T06:11:57.891Z,45.50
2017-07-04T06:14:26.563Z,45.50
2017-07-04T06:16:55.171Z,46.40
2017-07-04T06:19:23.923Z,47.40
2017-07-04T06:21:53.411Z,48.80
2017-07-04T06:24:22.011Z,48.80
2017-07-04T06:26:51.359Z,49.50
2017-07-04T06:29:20.451Z,49.50
2017-07-04T06:31:49.203Z,49.60
2017-07-04T06:34:18.544Z,49.50
2017-07-04T06:36:47.291Z,49.50
2017-07-04T06:39:16.696Z,47.90
2017-07-04T06:41:44.875Z,47.90
2017-07-04T06:44:14.519Z,46.30
2017-07-04T06:46:43.173Z,46.30
2017-07-04T06:49:12.511Z,45.10
2017-07-04T06:51:41.359Z,45.10
2017-07-04T06:54:10.702Z,44.70
2017-07-04T06:56:39.346Z,44.70
2017-07-04T06:59:08.835Z,44.90
2017-07-04T07:01:37.483Z,44.90
2017-07-04T07:04:05.683Z,44.90
2017-07-04T07:06:34.458Z,44.40
2017-07-04T07:09:02.807Z,43.80
2017-07-04T07:11:31.487Z,43.30
2017-07-04T07:14:00.192Z,43.50
2017-07-04T07:16:28.254Z,43.40
2017-07-04T07:18:56.407Z,43.80
2017-07-04T07:21:26.135Z,44.80
2017-07-04T07:23:54.887Z,44.70
2017-07-04T07:26:23.626Z,44.80
2017-07-04T07:28:51.839Z,45.00
2017-07-04T07:31:20.477Z,45.00
2017-07-04T07:33:49.180Z,45.70
2017-07-04T07:36:18.175Z,45.40
2017-07-04T07:38:46.983Z,44.80
2017-07-04T07:41:15.617Z,45.20
2017-07-04T07:43:45.244Z,44.10
2017-07-04T07:46:14.052Z,44.10
2017-07-04T07:48:42.703Z,43.20
2017-07-04T07:51:11.035Z,42.60
2017-07-04T07:53:39.851Z,42.60
2017-07-04T07:56:08.591Z,42.00
2017-07-04T07:58:37.264Z,42.30
2017-07-04T08:01:05.871Z,41.90
2017-07-04T08:03:34.519Z,41.40
2017-07-04T08:06:04.069Z,41.10
2017-07-04T08:08:32.822Z,41.10
2017-07-04T08:11:01.088Z,41.30
2017-07-04T08:13:30.709Z,41.20
2017-07-04T08:16:00.051Z,41.10
2017-07-04T08:18:28.705Z,41.10
2017-07-04T08:20:57.505Z,41.10
2017-07-04T08:23:25.644Z,40.80
2017-07-04T08:25:54.344Z,40.80
2017-07-04T08:28:23.876Z,40.80
2017-07-04T08:30:52.535Z,40.70
2017-07-04T08:33:21.836Z,40.70
2017-07-04T08:35:51.528Z,40.80
2017-07-04T08:38:20.037Z,40.80
2017-07-04T08:40:49.677Z,40.80
2017-07-04T08:43:18.567Z,40.70
2017-07-04T08:45:47.063Z,40.80
2017-07-04T08:48:15.280Z,40.80
2017-07-04T08:50:44.146Z,40.80
2017-07-04T08:53:12.817Z,40.80
2017-07-04T08:55:40.923Z,40.90
2017-07-04T08:58:09.871Z,40.90
2017-07-04T09:00:38.764Z,40.90
2017-07-04T09:03:07.312Z,40.60
2017-07-04T09:05:37.003Z,40.70
2017-07-04T09:08:05.847Z,40.70
2017-07-04T09:10:34.658Z,40.80
2017-07-04T09:13:03.455Z,40.60
2017-07-04T09:15:32.079Z,40.60
2017-07-04T09:18:01.388Z,40.40
2017-07-04T09:20:30.176Z,40.30
2017-07-04T09:22:59.471Z,40.50
2017-07-04T09:25:29.012Z,40.50
2017-07-04T09:27:58.159Z,40.50
2017-07-04T09:30:27.004Z,40.40
2017-07-04T09:32:55.620Z,40.10
2017-07-04T09:35:24.394Z,40.30
2017-07-04T09:37:53.047Z,40.50
2017-07-04T09:40:21.752Z,40.40
2017-07-04T09:42:50.484Z,40.50
2017-07-04T09:45:18.988Z,40.50
2017-07-04T09:47:48.390Z,40.40
2017-07-04T09:50:18.019Z,40.40
2017-07-04T09:52:47.404Z,40.40
2017-07-04T09:55:16.707Z,40.30
2017-07-04T09:57:46.395Z,40.50
2017-07-04T10:00:14.900Z,40.50
2017-07-04T10:02:44.439Z,40.50
2017-07-04T10:05:13.434Z,40.50
2017-07-04T10:07:41.991Z,40.70
2017-07-04T10:10:11.527Z,40.60
2017-07-04T10:12:40.567Z,40.60
2017-07-04T10:15:09.514Z,40.50
2017-07-04T10:17:38.012Z,40.40
2017-07-04T10:20:06.795Z,40.40
2017-07-04T10:22:35.439Z,40.40
2017-07-04T10:25:04.887Z,40.40
2017-07-04T10:27:33.755Z,40.30
2017-07-04T10:30:02.636Z,40.40
2017-07-04T10:32:32.035Z,40.40
2017-07-04T10:35:00.235Z,40.40
2017-07-04T10:37:29.055Z,40.40
2017-07-04T10:39:57.591Z,40.30
2017-07-04T10:42:27.280Z,40.40
2017-07-04T10:44:56.222Z,40.30
2017-07-04T10:47:24.876Z,40.30
2017-07-04T10:49:54.707Z,40.40
2017-07-04T10:52:23.511Z,40.40
2017-07-04T10:54:52.404Z,40.50
2017-07-04T10:57:20.687Z,40.40
2017-07-04T10:59:49.350Z,40.20
2017-07-04T11:02:18.103Z,40.30
2017-07-04T11:04:46.727Z,40.30
2017-07-04T11:07:15.399Z,40.30
2017-07-04T11:09:44.704Z,40.00
2017-07-04T11:12:13.024Z,40.00
2017-07-04T11:14:41.748Z,40.10
2017-07-04T11:17:10.840Z,40.30
2017-07-04T11:19:39.603Z,40.20
2017-07-04T11:22:08.719Z,40.10
2017-07-04T11:24:39.312Z,40.20
2017-07-04T11:27:11.099Z,40.10
2017-07-04T11:29:39.603Z,40.00
2017-07-04T11:32:10.951Z,39.90
2017-07-04T11:34:41.164Z,39.90
2017-07-04T11:37:10.715Z,39.90
2017-07-04T11:39:40.800Z,39.60
2017-07-04T11:42:11.166Z,39.70
2017-07-04T11:44:40.391Z,39.40
2017-07-04T11:47:10.174Z,39.40
2017-07-04T11:49:40.024Z,39.40
2017-07-04T11:52:09.855Z,39.40
2017-07-04T11:54:40.534Z,39.60
2017-07-04T11:57:09.071Z,39.60
2017-07-04T11:59:38.811Z,39.60
2017-07-04T12:02:08.267Z,39.50
2017-07-04T12:04:39.524Z,39.60
2017-07-04T12:07:09.244Z,39.60
2017-07-04T12:09:39.215Z,39.40
2017-07-04T12:12:08.387Z,39.40
2017-07-04T12:14:39.871Z,39.50
2017-07-04T12:17:09.441Z,39.40
2017-07-04T12:19:39.654Z,39.40
2017-07-04T12:22:08.787Z,39.30
2017-07-04T12:24:36.871Z,39.40
2017-07-04T12:27:07.320Z,39.40
2017-07-04T12:29:36.762Z,39.50
2017-07-04T12:32:06.439Z,39.40
2017-07-04T12:34:37.075Z,39.40
2017-07-04T12:37:06.119Z,39.20
2017-07-04T12:39:35.977Z,39.10
2017-07-04T12:42:06.083Z,38.80
2017-07-04T12:44:36.618Z,38.90
2017-07-04T12:47:05.329Z,38.90
2017-07-04T12:49:34.823Z,38.80
2017-07-04T12:52:04.327Z,38.70
2017-07-04T12:54:33.243Z,38.80
2017-07-04T12:57:03.858Z,38.70
2017-07-04T12:59:35.320Z,38.60
2017-07-04T13:02:06.039Z,38.60
2017-07-04T13:04:35.311Z,38.60
2017-07-04T13:07:04.812Z,38.50
2017-07-04T13:09:35.036Z,38.40
2017-07-04T13:12:05.055Z,38.40
2017-07-04T13:14:34.872Z,38.20
2017-07-04T13:17:05.664Z,38.20
2017-07-04T13:19:37.476Z,38.20
2017-07-04T13:22:07.759Z,38.20
2017-07-04T13:24:36.862Z,38.20
2017-07-04T13:27:07.571Z,38.20
2017-07-04T13:29:37.680Z,38.20
2017-07-04T13:32:06.385Z,38.20
2017-07-04T13:34:35.069Z,38.10
2017-07-04T13:37:04.620Z,38.10
2017-07-04T13:39:35.091Z,37.90
2017-07-04T13:42:03.999Z,37.90
2017-07-04T13:44:32.880Z,37.90
2017-07-04T13:47:03.859Z,37.70
2017-07-04T13:49:36.188Z,37.70
2017-07-04T13:52:05.051Z,37.70
2017-07-04T13:54:34.968Z,37.70
2017-07-04T13:57:05.733Z,37.70
2017-07-04T13:59:35.819Z,37.70
2017-07-04T14:02:05.750Z,37.70
2017-07-04T14:04:35.719Z,37.70
2017-07-04T14:07:05.516Z,37.60
2017-07-04T14:09:34.420Z,37.60
2017-07-04T14:12:03.795Z,37.50
2017-07-04T14:14:32.224Z,37.50
2017-07-04T14:17:01.883Z,37.40
2017-07-04T14:19:32.679Z,37.40
2017-07-04T14:22:02.911Z,37.40
2017-07-04T14:24:33.081Z,37.30
2017-07-04T14:27:03.427Z,37.30
2017-07-04T14:29:33.312Z,37.30
2017-07-04T14:32:03.907Z,37.30
2017-07-04T14:34:34.304Z,37.20
2017-07-04T14:37:04.562Z,37.20
2017-07-04T14:39:34.824Z,37.00
2017-07-04T14:42:04.441Z,37.00
2017-07-04T14:44:34.019Z,37.10
2017-07-04T14:47:03.731Z,36.90
2017-07-04T14:49:32.655Z,36.80
2017-07-04T14:52:01.987Z,36.80
2017-07-04T14:54:31.949Z,36.80
2017-07-04T14:57:01.439Z,36.80
2017-07-04T14:59:32.507Z,36.70
2017-07-04T15:02:01.279Z,36.70
2017-07-04T15:04:29.601Z,36.70
2017-07-04T15:06:59.472Z,36.60
2017-07-04T15:09:29.828Z,36.60
2017-07-04T15:11:58.880Z,36.50
2017-07-04T15:14:29.452Z,36.50
2017-07-04T15:16:59.070Z,36.50
2017-07-04T15:19:28.728Z,36.40
2017-07-04T15:21:59.091Z,36.60
2017-07-04T15:24:29.720Z,36.50
2017-07-04T15:26:59.511Z,36.50
2017-07-04T15:29:30.623Z,36.40
2017-07-04T15:32:00.575Z,36.40
2017-07-04T15:34:29.767Z,36.50
2017-07-04T15:37:00.579Z,36.40
2017-07-04T15:39:29.484Z,36.40
2017-07-04T15:41:59.388Z,36.30
2017-07-04T15:44:29.953Z,36.30
2017-07-04T15:46:59.360Z,36.30
2017-07-04T15:49:27.633Z,36.30
2017-07-04T15:51:57.215Z,36.20
2017-07-04T15:54:27.095Z,36.30
2017-07-04T15:56:56.747Z,36.30
2017-07-04T15:59:26.304Z,36.30
2017-07-04T16:01:56.300Z,36.40
2017-07-04T16:04:26.795Z,36.40
2017-07-04T16:06:55.559Z,36.30
2017-07-04T16:09:26.040Z,36.30
2017-07-04T16:11:55.024Z,36.20
2017-07-04T16:14:26.120Z,36.20
2017-07-04T16:16:55.253Z,36.20
2017-07-04T16:19:25.444Z,36.20
2017-07-04T16:21:55.643Z,36.10
2017-07-04T16:24:26.951Z,36.10
2017-07-04T16:26:57.732Z,36.10
2017-07-04T16:29:33.732Z,36.10
2017-07-04T16:32:04.707Z,36.10
2017-07-04T16:34:36.423Z,36.10
2017-07-04T16:37:06.372Z,36.20
2017-07-04T16:39:36.711Z,36.10
2017-07-04T16:42:06.907Z,36.00
2017-07-04T16:44:36.420Z,36.00
2017-07-04T16:47:05.465Z,36.00
2017-07-04T16:49:34.050Z,36.00
2017-07-04T16:52:02.578Z,36.00
2017-07-04T16:54:31.235Z,36.00
2017-07-04T16:57:02.151Z,36.00
2017-07-04T16:59:32.807Z,36.00
2017-07-04T17:02:02.535Z,36.00
2017-07-04T17:04:32.322Z,35.90
2017-07-04T17:07:03.511Z,35.90
2017-07-04T17:09:34.440Z,35.80
2017-07-04T17:12:03.443Z,35.80
2017-07-04T17:14:33.672Z,35.80
2017-07-04T17:17:03.424Z,35.80
2017-07-04T17:19:33.567Z,35.80
2017-07-04T17:22:02.679Z,35.80
2017-07-04T17:24:31.119Z,35.80
2017-07-04T17:27:01.511Z,35.80
2017-07-04T17:29:30.880Z,35.80
2017-07-04T17:32:00.476Z,35.80
2017-07-04T17:34:28.871Z,35.80
2017-07-04T17:36:57.784Z,35.80
2017-07-04T17:39:26.871Z,35.80
2017-07-04T17:41:58.900Z,35.70
2017-07-04T17:44:28.060Z,35.70
2017-07-04T17:46:59.801Z,35.70
2017-07-04T17:49:30.756Z,35.70
2017-07-04T17:52:01.023Z,35.70
2017-07-04T17:54:29.239Z,35.70
2017-07-04T17:56:59.655Z,35.60
2017-07-04T17:59:30.573Z,35.60
2017-07-04T18:02:00.139Z,35.60
2017-07-04T18:04:29.767Z,35.50
2017-07-04T18:06:59.292Z,35.50
2017-07-04T18:09:28.939Z,35.40
2017-07-04T18:11:59.488Z,35.40
2017-07-04T18:14:30.083Z,35.40
2017-07-04T18:16:59.731Z,35.40
2017-07-04T18:19:29.532Z,35.40
2017-07-04T18:21:59.291Z,35.30
2017-07-04T18:24:29.079Z,35.30
2017-07-04T18:26:59.363Z,35.30
2017-07-04T18:29:29.475Z,35.30
2017-07-04T18:31:59.296Z,35.30
2017-07-04T18:34:28.908Z,35.30
2017-07-04T18:36:59.811Z,35.20
2017-07-04T18:39:30.156Z,35.20
2017-07-04T18:41:59.525Z,35.10
2017-07-04T18:44:29.671Z,35.10
2017-07-04T18:47:00.779Z,35.00
2017-07-04T18:49:29.940Z,34.90
2017-07-04T18:51:58.906Z,34.90
2017-07-04T18:54:29.746Z,34.80
2017-07-04T18:56:59.924Z,34.80
2017-07-04T18:59:28.695Z,34.70
2017-07-04T19:01:58.146Z,34.70
2017-07-04T19:04:30.043Z,34.80
2017-07-04T19:07:01.219Z,34.70
2017-07-04T19:09:29.823Z,34.70
2017-07-04T19:11:59.223Z,34.70
2017-07-04T19:14:29.047Z,34.70
2017-07-04T19:16:58.239Z,34.70
2017-07-04T19:19:28.865Z,34.70
2017-07-04T19:21:58.190Z,34.70
2017-07-04T19:24:27.076Z,34.70
2017-07-04T19:26:56.848Z,34.70
2017-07-04T19:29:26.471Z,34.70
2017-07-04T19:31:55.933Z,34.60
2017-07-04T19:34:26.304Z,34.50
2017-07-04T19:36:56.549Z,34.60
2017-07-04T19:39:25.872Z,34.60
2017-07-04T19:41:56.760Z,34.50
2017-07-04T19:44:27.960Z,34.50
2017-07-04T19:46:58.488Z,34.40
2017-07-04T19:49:28.219Z,34.50
2017-07-04T19:51:58.244Z,34.40
2017-07-04T19:54:27.743Z,34.50
2017-07-04T19:56:58.622Z,34.50
2017-07-04T19:59:28.399Z,34.50
2017-07-04T20:01:57.596Z,34.50
2017-07-04T20:04:26.379Z,34.50
2017-07-04T20:06:56.588Z,34.50
2017-07-04T20:09:27.238Z,34.50
2017-07-04T20:11:55.956Z,34.50
2017-07-04T20:14:26.375Z,34.50
2017-07-04T20:16:56.423Z,34.50
2017-07-04T20:19:28.004Z,34.50
2017-07-04T20:21:57.215Z,34.50
2017-07-04T20:24:27.015Z,34.50
2017-07-04T20:26:56.567Z,34.50
2017-07-04T20:29:26.379Z,34.50
2017-07-04T20:31:55.856Z,34.50
2017-07-04T20:34:26.657Z,34.50
2017-07-04T20:36:57.207Z,34.50
2017-07-04T20:39:26.299Z,34.40
2017-07-04T20:41:57.195Z,34.40
2017-07-04T20:44:27.439Z,34.40
2017-07-04T20:46:56.952Z,34.40
2017-07-04T20:49:25.948Z,34.40
2017-07-04T20:51:55.948Z,34.30
2017-07-04T20:54:26.487Z,34.30
2017-07-04T20:56:55.336Z,34.30
2017-07-04T20:59:24.508Z,34.30
2017-07-04T21:01:54.247Z,34.30
2017-07-04T21:04:24.029Z,34.30
2017-07-04T21:06:53.232Z,34.30
2017-07-04T21:09:21.958Z,34.30
2017-07-04T21:11:51.500Z,34.30
2017-07-04T21:14:21.451Z,34.20
2017-07-04T21:16:51.416Z,34.20
2017-07-04T21:19:20.736Z,34.10
2017-07-04T21:21:51.064Z,34.20
2017-07-04T21:24:21.176Z,34.20
2017-07-04T21:26:50.625Z,34.20
2017-07-04T21:29:21.175Z,34.10
2017-07-04T21:31:51.029Z,34.10
2017-07-04T21:34:20.191Z,34.00
2017-07-04T21:36:50.424Z,34.00
2017-07-04T21:39:21.907Z,34.00
2017-07-04T21:41:52.524Z,34.00
2017-07-04T21:44:21.779Z,34.00
2017-07-04T21:46:50.843Z,34.00
2017-07-04T21:49:21.199Z,34.00
2017-07-04T21:51:50.614Z,34.00
2017-07-04T21:54:20.655Z,34.00
2017-07-04T21:56:51.868Z,33.90
2017-07-04T21:59:22.295Z,33.90
2017-07-04T22:01:52.212Z,33.90
2017-07-04T22:04:23.624Z,33.90
2017-07-04T22:06:53.592Z,33.90
2017-07-04T22:09:23.675Z,33.90
2017-07-04T22:11:52.844Z,33.80
2017-07-04T22:14:23.536Z,33.80
2017-07-04T22:16:52.347Z,33.70
2017-07-04T22:19:21.511Z,33.70
2017-07-04T22:21:50.927Z,33.70
2017-07-04T22:24:20.196Z,33.70
2017-07-04T22:26:50.604Z,33.70
2017-07-04T22:29:20.028Z,33.70
2017-07-04T22:31:48.920Z,33.60
2017-07-04T22:34:18.477Z,33.60
2017-07-04T22:36:49.267Z,33.60
2017-07-04T22:39:18.750Z,33.60
2017-07-04T22:41:48.395Z,33.50
2017-07-04T22:44:19.870Z,33.40
2017-07-04T22:46:50.323Z,33.40
2017-07-04T22:49:20.462Z,33.30
2017-07-04T22:51:50.140Z,33.30
2017-07-04T22:54:20.268Z,33.30
2017-07-04T22:56:49.803Z,33.30
2017-07-04T22:59:18.480Z,33.20
2017-07-04T23:01:48.615Z,33.10
2017-07-04T23:04:16.975Z,33.10
2017-07-04T23:06:48.053Z,33.10
2017-07-04T23:09:18.499Z,33.00
2017-07-04T23:11:46.883Z,33.00
2017-07-04T23:14:16.283Z,33.00
2017-07-04T23:16:46.775Z,33.00
2017-07-04T23:19:16.940Z,33.00
2017-07-04T23:21:45.865Z,32.90
2017-07-04T23:24:15.230Z,32.90
2017-07-04T23:26:44.551Z,32.80
2017-07-04T23:29:15.452Z,32.80
2017-07-04T23:31:46.187Z,32.80
2017-07-04T23:34:15.755Z,32.80
2017-07-04T23:36:45.344Z,32.80
2017-07-04T23:39:14.206Z,32.80
2017-07-04T23:41:45.364Z,32.70
2017-07-04T23:44:14.545Z,32.60
2017-07-04T23:46:45.540Z,32.30
2017-07-04T23:49:15.228Z,32.40
2017-07-04T23:51:45.474Z,32.50
2017-07-04T23:54:16.003Z,32.50
2017-07-04T23:56:47.464Z,32.50
2017-07-04T23:59:16.596Z,32.50
